Mission Field
KLVM : now visible

Airfield :











YOU CAN JOIN US ON...

 
LOGIN :

Register | Disclaimer

   EN    FR    IT 

 









Legend :    VFR   Marginal VFR   IFR   Intensive IFR   Very Intensive IFR
Visi :
Ceiling :
>= 8 km
>= 3000ft
5 to 8 km
1000 to 3000 ft
1500m to 5 km
500 to 1000 ft
800 to 1500m
200 to 500 ft
< 800m
< 200 ft
Symbols :   Thunderstorms  Fog  Heavy snow  Heavy precipitations  Wind > 20 kt






- Airport Elevation : 4660 ft


KLVM - Mission Field

CURRENT METAR :
  • 060353Z AUTO 08006KT 10SM FEW110 18/09 A3008 RMK AO2 SLP149 T01780089

EXPIRED METARs :
  • 060253Z AUTO 19007KT 10SM BKN110 19/08 A3010 RMK AO2 LTG DSNT S TSE01 SLP158 T01890078 51017
  • 060207Z AUTO VRB06G16KT 10SM FEW100 20/09 A3010 RMK AO2 TSE01 T02000089
  • 060153Z AUTO 33016G24KT 10SM TS SCT100 22/09 A3008 RMK AO2 TSB46 SLP147 T02220089

TAF KLVM
Valid from the 06 at 02:00 until the 07 at 00:00 UTC


060227Z 0602/0624 VRB06KT P6SM VCTS SCT080CB BKN100
FM060400 VRB05KT P6SM SCT100
FM061900 VRB05KT P6SM VCTS BKN090CB
KZLC FIR / North America



MET'MAP, your aeronautical weather chart ! - Copyright ORBIFLY December 2007 - Disclaimer

ORBIFLY MET'MAP TEAM :

Programming & Development : Alexandra Zaïnal
Concept & original design : Baudouin d'Aumeries
Assistance for programming : Marc-Olivier Méhu
Technical & hardware support : Manuel Goepfert

Contact : metmap@orbifly.com




SOURCES & CREDITS :

   NOAA       Earth
Advisory